sensor_id;sensor_type;location;lat;lon;timestamp;P1;durP1;ratioP1;P2;durP2;ratioP2
40815;SDS011;26535;48.788;9.214;2024-01-10T00:00:00;19.92;;;9.48;;
40815;SDS011;26535;48.788;9.214;2024-01-10T00:02:26;19.88;;;9.30;;
40815;SDS011;26535;48.788;9.214;2024-01-10T00:04:52;19.75;;;9.20;;
40815;SDS011;26535;48.788;9.214;2024-01-10T00:07:18;17.10;;;8.25;;
40815;SDS011;26535;48.788;9.214;2024-01-10T00:09:43;15.75;;;8.82;;
40815;SDS011;26535;48.788;9.214;2024-01-10T00:12:10;17.65;;;8.75;;
40815;SDS011;26535;48.788;9.214;2024-01-10T00:14:37;18.42;;;9.30;;
40815;SDS011;26535;48.788;9.214;2024-01-10T00:17:02;17.50;;;9.55;;
40815;SDS011;26535;48.788;9.214;2024-01-10T00:19:28;21.85;;;9.77;;
40815;SDS011;26535;48.788;9.214;2024-01-10T00:21:58;16.48;;;7.97;;
40815;SDS011;26535;48.788;9.214;2024-01-10T00:24:24;22.15;;;9.13;;
40815;SDS011;26535;48.788;9.214;2024-01-10T00:26:49;17.70;;;9.23;;
40815;SDS011;26535;48.788;9.214;2024-01-10T00:29:15;16.75;;;9.15;;
40815;SDS011;26535;48.788;9.214;2024-01-10T00:31:41;19.85;;;9.65;;
40815;SDS011;26535;48.788;9.214;2024-01-10T00:34:07;19.75;;;9.02;;
40815;SDS011;26535;48.788;9.214;2024-01-10T00:36:32;19.85;;;9.52;;
40815;SDS011;26535;48.788;9.214;2024-01-10T00:38:58;18.17;;;9.50;;
40815;SDS011;26535;48.788;9.214;2024-01-10T00:41:24;19.95;;;9.48;;
40815;SDS011;26535;48.788;9.214;2024-01-10T00:43:52;18.10;;;8.57;;
40815;SDS011;26535;48.788;9.214;2024-01-10T00:46:18;18.83;;;9.43;;
40815;SDS011;26535;48.788;9.214;2024-01-10T00:48:46;22.05;;;9.50;;
40815;SDS011;26535;48.788;9.214;2024-01-10T00:51:15;19.83;;;8.95;;
40815;SDS011;26535;48.788;9.214;2024-01-10T00:53:40;19.55;;;9.00;;
40815;SDS011;26535;48.788;9.214;2024-01-10T00:56:07;19.13;;;8.73;;
40815;SDS011;26535;48.788;9.214;2024-01-10T00:58:33;19.45;;;9.48;;
40815;SDS011;26535;48.788;9.214;2024-01-10T01:00:58;20.15;;;9.18;;
40815;SDS011;26535;48.788;9.214;2024-01-10T01:03:27;19.30;;;9.23;;
40815;SDS011;26535;48.788;9.214;2024-01-10T01:06:03;18.33;;;8.75;;
40815;SDS011;26535;48.788;9.214;2024-01-10T01:08:31;21.48;;;9.50;;
40815;SDS011;26535;48.788;9.214;2024-01-10T01:11:09;16.80;;;8.77;;
40815;SDS011;26535;48.788;9.214;2024-01-10T01:13:38;18.70;;;9.63;;
40815;SDS011;26535;48.788;9.214;2024-01-10T01:16:09;19.35;;;9.77;;
40815;SDS011;26535;48.788;9.214;2024-01-10T01:18:35;19.65;;;9.52;;
40815;SDS011;26535;48.788;9.214;2024-01-10T01:21:07;18.35;;;8.48;;
40815;SDS011;26535;48.788;9.214;2024-01-10T01:23:33;18.40;;;9.80;;
40815;SDS011;26535;48.788;9.214;2024-01-10T01:26:10;18.73;;;8.70;;
40815;SDS011;26535;48.788;9.214;2024-01-10T01:28:41;17.70;;;8.75;;
40815;SDS011;26535;48.788;9.214;2024-01-10T01:31:10;16.98;;;9.18;;
40815;SDS011;26535;48.788;9.214;2024-01-10T01:33:39;18.30;;;9.27;;
40815;SDS011;26535;48.788;9.214;2024-01-10T01:36:05;21.45;;;10.00;;
40815;SDS011;26535;48.788;9.214;2024-01-10T01:38:31;20.50;;;9.38;;
40815;SDS011;26535;48.788;9.214;2024-01-10T01:40:57;19.85;;;9.25;;
40815;SDS011;26535;48.788;9.214;2024-01-10T01:43:26;19.25;;;9.52;;
40815;SDS011;26535;48.788;9.214;2024-01-10T01:45:55;18.70;;;9.40;;
40815;SDS011;26535;48.788;9.214;2024-01-10T01:48:21;16.42;;;9.00;;
40815;SDS011;26535;48.788;9.214;2024-01-10T01:50:49;17.38;;;8.73;;
40815;SDS011;26535;48.788;9.214;2024-01-10T01:53:22;20.25;;;9.48;;
40815;SDS011;26535;48.788;9.214;2024-01-10T01:55:48;19.77;;;9.35;;
40815;SDS011;26535;48.788;9.214;2024-01-10T01:58:17;20.75;;;9.55;;
40815;SDS011;26535;48.788;9.214;2024-01-10T02:00:44;19.38;;;8.38;;
40815;SDS011;26535;48.788;9.214;2024-01-10T02:03:10;15.45;;;8.23;;
40815;SDS011;26535;48.788;9.214;2024-01-10T02:05:39;23.10;;;10.07;;
40815;SDS011;26535;48.788;9.214;2024-01-10T02:08:05;20.55;;;9.05;;
40815;SDS011;26535;48.788;9.214;2024-01-10T02:10:31;19.60;;;9.23;;
40815;SDS011;26535;48.788;9.214;2024-01-10T02:12:57;19.48;;;8.68;;
40815;SDS011;26535;48.788;9.214;2024-01-10T02:15:29;17.90;;;8.70;;
40815;SDS011;26535;48.788;9.214;2024-01-10T02:18:01;17.58;;;9.18;;
40815;SDS011;26535;48.788;9.214;2024-01-10T02:20:29;18.75;;;9.68;;
40815;SDS011;26535;48.788;9.214;2024-01-10T02:22:58;21.38;;;9.35;;
40815;SDS011;26535;48.788;9.214;2024-01-10T02:25:27;19.83;;;9.73;;
40815;SDS011;26535;48.788;9.214;2024-01-10T02:27:55;18.98;;;9.30;;
40815;SDS011;26535;48.788;9.214;2024-01-10T02:30:26;18.63;;;8.98;;
40815;SDS011;26535;48.788;9.214;2024-01-10T02:32:52;19.88;;;9.50;;
40815;SDS011;26535;48.788;9.214;2024-01-10T02:35:18;19.20;;;9.65;;
40815;SDS011;26535;48.788;9.214;2024-01-10T02:37:49;22.45;;;9.52;;
40815;SDS011;26535;48.788;9.214;2024-01-10T02:40:16;18.90;;;9.88;;
40815;SDS011;26535;48.788;9.214;2024-01-10T02:42:45;18.25;;;9.10;;
40815;SDS011;26535;48.788;9.214;2024-01-10T02:45:16;18.33;;;8.98;;
40815;SDS011;26535;48.788;9.214;2024-01-10T02:47:48;18.83;;;8.68;;
40815;SDS011;26535;48.788;9.214;2024-01-10T02:50:16;18.60;;;8.43;;
40815;SDS011;26535;48.788;9.214;2024-01-10T02:52:45;18.98;;;9.30;;
40815;SDS011;26535;48.788;9.214;2024-01-10T02:55:10;17.90;;;9.02;;
40815;SDS011;26535;48.788;9.214;2024-01-10T02:57:36;19.75;;;9.63;;
40815;SDS011;26535;48.788;9.214;2024-01-10T03:00:02;19.88;;;9.38;;
40815;SDS011;26535;48.788;9.214;2024-01-10T03:02:33;19.63;;;9.00;;
40815;SDS011;26535;48.788;9.214;2024-01-10T03:04:59;16.63;;;8.15;;
40815;SDS011;26535;48.788;9.214;2024-01-10T03:07:27;20.73;;;9.07;;
40815;SDS011;26535;48.788;9.214;2024-01-10T03:09:53;19.35;;;9.05;;
40815;SDS011;26535;48.788;9.214;2024-01-10T03:12:19;18.98;;;9.73;;
40815;SDS011;26535;48.788;9.214;2024-01-10T03:14:53;18.67;;;9.07;;
40815;SDS011;26535;48.788;9.214;2024-01-10T03:17:22;19.10;;;9.68;;
40815;SDS011;26535;48.788;9.214;2024-01-10T03:19:48;19.25;;;9.02;;
40815;SDS011;26535;48.788;9.214;2024-01-10T03:22:19;19.88;;;10.07;;
40815;SDS011;26535;48.788;9.214;2024-01-10T03:24:45;23.30;;;10.32;;
40815;SDS011;26535;48.788;9.214;2024-01-10T03:27:12;19.10;;;9.55;;
40815;SDS011;26535;48.788;9.214;2024-01-10T03:29:41;19.02;;;8.98;;
40815;SDS011;26535;48.788;9.214;2024-01-10T03:32:07;19.55;;;9.73;;
40815;SDS011;26535;48.788;9.214;2024-01-10T03:34:35;19.13;;;9.57;;
40815;SDS011;26535;48.788;9.214;2024-01-10T03:37:01;18.25;;;9.15;;
40815;SDS011;26535;48.788;9.214;2024-01-10T03:39:30;19.20;;;10.32;;
40815;SDS011;26535;48.788;9.214;2024-01-10T03:41:55;17.38;;;8.70;;
40815;SDS011;26535;48.788;9.214;2024-01-10T03:44:26;18.98;;;8.95;;
40815;SDS011;26535;48.788;9.214;2024-01-10T03:46:55;22.05;;;9.90;;
40815;SDS011;26535;48.788;9.214;2024-01-10T03:49:21;19.42;;;9.65;;
40815;SDS011;26535;48.788;9.214;2024-01-10T03:51:50;18.00;;;8.75;;
40815;SDS011;26535;48.788;9.214;2024-01-10T03:54:21;19.25;;;9.85;;
40815;SDS011;26535;48.788;9.214;2024-01-10T03:56:52;18.75;;;9.40;;
40815;SDS011;26535;48.788;9.214;2024-01-10T03:59:17;18.70;;;9.52;;
40815;SDS011;26535;48.788;9.214;2024-01-10T04:01:43;17.27;;;8.43;;
40815;SDS011;26535;48.788;9.214;2024-01-10T04:04:09;20.52;;;9.35;;
40815;SDS011;26535;48.788;9.214;2024-01-10T04:06:34;19.35;;;8.88;;
40815;SDS011;26535;48.788;9.214;2024-01-10T04:09:03;20.33;;;10.07;;
40815;SDS011;26535;48.788;9.214;2024-01-10T04:11:29;19.02;;;9.98;;
40815;SDS011;26535;48.788;9.214;2024-01-10T04:13:57;20.90;;;10.52;;
40815;SDS011;26535;48.788;9.214;2024-01-10T04:16:26;23.33;;;10.65;;
40815;SDS011;26535;48.788;9.214;2024-01-10T04:18:55;22.00;;;10.43;;
40815;SDS011;26535;48.788;9.214;2024-01-10T04:21:24;21.38;;;10.05;;
40815;SDS011;26535;48.788;9.214;2024-01-10T04:23:50;20.75;;;9.75;;
40815;SDS011;26535;48.788;9.214;2024-01-10T04:26:21;19.73;;;8.90;;
40815;SDS011;26535;48.788;9.214;2024-01-10T04:28:53;20.67;;;10.65;;
40815;SDS011;26535;48.788;9.214;2024-01-10T04:31:21;19.25;;;9.50;;
40815;SDS011;26535;48.788;9.214;2024-01-10T04:33:56;20.83;;;11.02;;
40815;SDS011;26535;48.788;9.214;2024-01-10T04:36:24;21.08;;;10.90;;
40815;SDS011;26535;48.788;9.214;2024-01-10T04:38:53;24.95;;;11.55;;
40815;SDS011;26535;48.788;9.214;2024-01-10T04:41:22;25.02;;;11.55;;
40815;SDS011;26535;48.788;9.214;2024-01-10T04:43:51;20.20;;;10.77;;
40815;SDS011;26535;48.788;9.214;2024-01-10T04:46:16;20.83;;;11.40;;
40815;SDS011;26535;48.788;9.214;2024-01-10T04:48:44;22.55;;;11.95;;
40815;SDS011;26535;48.788;9.214;2024-01-10T04:51:12;23.90;;;10.70;;
40815;SDS011;26535;48.788;9.214;2024-01-10T04:53:39;20.20;;;10.57;;
40815;SDS011;26535;48.788;9.214;2024-01-10T04:56:05;27.20;;;11.75;;
40815;SDS011;26535;48.788;9.214;2024-01-10T04:58:31;23.02;;;11.88;;
40815;SDS011;26535;48.788;9.214;2024-01-10T05:01:04;25.30;;;12.38;;
40815;SDS011;26535;48.788;9.214;2024-01-10T05:03:31;23.05;;;11.60;;
40815;SDS011;26535;48.788;9.214;2024-01-10T05:05:56;25.15;;;11.93;;
40815;SDS011;26535;48.788;9.214;2024-01-10T05:08:28;21.80;;;11.63;;
40815;SDS011;26535;48.788;9.214;2024-01-10T05:10:56;23.10;;;11.30;;
40815;SDS011;26535;48.788;9.214;2024-01-10T05:13:25;23.05;;;11.77;;
40815;SDS011;26535;48.788;9.214;2024-01-10T05:15:56;23.55;;;11.85;;
40815;SDS011;26535;48.788;9.214;2024-01-10T05:18:25;26.73;;;12.02;;
40815;SDS011;26535;48.788;9.214;2024-01-10T05:20:54;26.98;;;13.10;;
40815;SDS011;26535;48.788;9.214;2024-01-10T05:23:23;23.13;;;11.85;;
40815;SDS011;26535;48.788;9.214;2024-01-10T05:25:55;22.60;;;11.07;;
40815;SDS011;26535;48.788;9.214;2024-01-10T05:28:23;23.23;;;10.77;;
40815;SDS011;26535;48.788;9.214;2024-01-10T05:30:52;23.60;;;12.10;;
40815;SDS011;26535;48.788;9.214;2024-01-10T05:33:20;23.65;;;11.55;;
40815;SDS011;26535;48.788;9.214;2024-01-10T05:35:46;24.58;;;12.02;;
40815;SDS011;26535;48.788;9.214;2024-01-10T05:38:15;23.27;;;11.68;;
40815;SDS011;26535;48.788;9.214;2024-01-10T05:40:41;22.67;;;12.27;;
40815;SDS011;26535;48.788;9.214;2024-01-10T05:43:15;24.55;;;11.77;;
40815;SDS011;26535;48.788;9.214;2024-01-10T05:45:53;21.45;;;11.45;;
40815;SDS011;26535;48.788;9.214;2024-01-10T05:48:19;24.85;;;12.77;;
40815;SDS011;26535;48.788;9.214;2024-01-10T05:50:47;23.42;;;12.50;;
40815;SDS011;26535;48.788;9.214;2024-01-10T05:53:16;23.15;;;12.00;;
40815;SDS011;26535;48.788;9.214;2024-01-10T05:55:44;24.85;;;12.98;;
40815;SDS011;26535;48.788;9.214;2024-01-10T05:58:13;29.95;;;13.57;;
40815;SDS011;26535;48.788;9.214;2024-01-10T06:00:45;24.67;;;12.55;;
40815;SDS011;26535;48.788;9.214;2024-01-10T06:03:13;26.55;;;12.68;;
40815;SDS011;26535;48.788;9.214;2024-01-10T06:05:45;24.02;;;12.25;;
40815;SDS011;26535;48.788;9.214;2024-01-10T06:08:14;23.95;;;12.25;;
40815;SDS011;26535;48.788;9.214;2024-01-10T06:10:50;25.95;;;13.07;;
40815;SDS011;26535;48.788;9.214;2024-01-10T06:13:16;22.90;;;12.20;;
40815;SDS011;26535;48.788;9.214;2024-01-10T06:15:42;27.35;;;14.15;;
40815;SDS011;26535;48.788;9.214;2024-01-10T06:18:11;24.98;;;13.80;;
40815;SDS011;26535;48.788;9.214;2024-01-10T06:20:37;27.50;;;13.52;;
40815;SDS011;26535;48.788;9.214;2024-01-10T06:23:05;24.42;;;11.85;;
40815;SDS011;26535;48.788;9.214;2024-01-10T06:25:31;25.75;;;12.80;;
40815;SDS011;26535;48.788;9.214;2024-01-10T06:27:59;24.58;;;12.90;;
40815;SDS011;26535;48.788;9.214;2024-01-10T06:30:31;27.63;;;12.88;;
40815;SDS011;26535;48.788;9.214;2024-01-10T06:32:59;25.33;;;12.93;;
40815;SDS011;26535;48.788;9.214;2024-01-10T06:35:28;25.25;;;13.40;;
40815;SDS011;26535;48.788;9.214;2024-01-10T06:37:54;24.17;;;12.90;;
40815;SDS011;26535;48.788;9.214;2024-01-10T06:40:23;26.27;;;12.52;;
40815;SDS011;26535;48.788;9.214;2024-01-10T06:42:49;24.35;;;12.18;;
40815;SDS011;26535;48.788;9.214;2024-01-10T06:45:14;24.38;;;11.52;;
40815;SDS011;26535;48.788;9.214;2024-01-10T06:47:40;24.67;;;12.68;;
40815;SDS011;26535;48.788;9.214;2024-01-10T06:50:08;25.38;;;12.60;;
40815;SDS011;26535;48.788;9.214;2024-01-10T06:52:37;24.58;;;12.30;;
40815;SDS011;26535;48.788;9.214;2024-01-10T06:55:07;26.85;;;12.75;;
40815;SDS011;26535;48.788;9.214;2024-01-10T06:57:33;27.20;;;12.93;;
40815;SDS011;26535;48.788;9.214;2024-01-10T06:59:58;23.80;;;12.95;;
40815;SDS011;26535;48.788;9.214;2024-01-10T07:02:27;25.60;;;12.85;;
40815;SDS011;26535;48.788;9.214;2024-01-10T07:05:00;26.58;;;12.90;;
40815;SDS011;26535;48.788;9.214;2024-01-10T07:07:25;25.88;;;12.15;;
40815;SDS011;26535;48.788;9.214;2024-01-10T07:09:54;25.58;;;12.60;;
40815;SDS011;26535;48.788;9.214;2024-01-10T07:12:19;23.80;;;11.57;;
40815;SDS011;26535;48.788;9.214;2024-01-10T07:14:57;25.42;;;13.10;;
40815;SDS011;26535;48.788;9.214;2024-01-10T07:17:23;23.25;;;11.93;;
40815;SDS011;26535;48.788;9.214;2024-01-10T07:19:51;22.48;;;12.20;;
40815;SDS011;26535;48.788;9.214;2024-01-10T07:22:20;24.27;;;11.93;;
40815;SDS011;26535;48.788;9.214;2024-01-10T07:24:49;29.90;;;14.60;;
40815;SDS011;26535;48.788;9.214;2024-01-10T07:27:18;23.13;;;12.55;;
40815;SDS011;26535;48.788;9.214;2024-01-10T07:29:46;25.42;;;13.93;;
40815;SDS011;26535;48.788;9.214;2024-01-10T07:32:20;27.02;;;14.55;;
40815;SDS011;26535;48.788;9.214;2024-01-10T07:34:49;26.40;;;13.55;;
40815;SDS011;26535;48.788;9.214;2024-01-10T07:37:18;28.63;;;13.88;;
40815;SDS011;26535;48.788;9.214;2024-01-10T07:39:48;24.85;;;13.35;;
40815;SDS011;26535;48.788;9.214;2024-01-10T07:42:15;26.20;;;13.55;;
40815;SDS011;26535;48.788;9.214;2024-01-10T07:44:52;22.25;;;13.23;;
40815;SDS011;26535;48.788;9.214;2024-01-10T07:47:18;28.65;;;14.02;;
40815;SDS011;26535;48.788;9.214;2024-01-10T07:49:44;26.35;;;13.20;;
40815;SDS011;26535;48.788;9.214;2024-01-10T07:52:10;25.42;;;13.43;;
40815;SDS011;26535;48.788;9.214;2024-01-10T07:54:41;32.25;;;14.05;;
40815;SDS011;26535;48.788;9.214;2024-01-10T07:57:07;28.52;;;14.18;;
40815;SDS011;26535;48.788;9.214;2024-01-10T07:59:36;28.95;;;13.73;;
40815;SDS011;26535;48.788;9.214;2024-01-10T08:04:51;25.70;;;13.65;;
40815;SDS011;26535;48.788;9.214;2024-01-10T08:07:19;27.20;;;13.73;;
40815;SDS011;26535;48.788;9.214;2024-01-10T08:10:09;24.60;;;13.32;;
40815;SDS011;26535;48.788;9.214;2024-01-10T08:12:38;26.88;;;13.05;;
40815;SDS011;26535;48.788;9.214;2024-01-10T08:15:07;24.13;;;13.02;;
40815;SDS011;26535;48.788;9.214;2024-01-10T08:17:42;24.45;;;12.75;;
40815;SDS011;26535;48.788;9.214;2024-01-10T08:20:14;25.65;;;12.13;;
40815;SDS011;26535;48.788;9.214;2024-01-10T08:22:47;23.45;;;12.15;;
40815;SDS011;26535;48.788;9.214;2024-01-10T08:25:16;23.90;;;11.85;;
40815;SDS011;26535;48.788;9.214;2024-01-10T08:27:43;25.42;;;12.60;;
40815;SDS011;26535;48.788;9.214;2024-01-10T08:30:10;25.33;;;12.75;;
40815;SDS011;26535;48.788;9.214;2024-01-10T08:32:39;25.92;;;13.18;;
40815;SDS011;26535;48.788;9.214;2024-01-10T08:35:07;28.63;;;13.63;;
40815;SDS011;26535;48.788;9.214;2024-01-10T08:37:36;27.38;;;13.88;;
40815;SDS011;26535;48.788;9.214;2024-01-10T08:40:05;25.80;;;13.52;;
40815;SDS011;26535;48.788;9.214;2024-01-10T08:42:35;27.35;;;13.25;;
40815;SDS011;26535;48.788;9.214;2024-01-10T08:45:03;26.75;;;13.77;;
40815;SDS011;26535;48.788;9.214;2024-01-10T08:47:29;24.70;;;12.82;;
40815;SDS011;26535;48.788;9.214;2024-01-10T08:50:00;29.17;;;14.43;;
40815;SDS011;26535;48.788;9.214;2024-01-10T08:52:32;26.90;;;13.50;;
40815;SDS011;26535;48.788;9.214;2024-01-10T08:55:01;39.63;;;15.38;;
40815;SDS011;26535;48.788;9.214;2024-01-10T08:57:26;38.67;;;15.05;;
40815;SDS011;26535;48.788;9.214;2024-01-10T08:59:54;34.60;;;15.95;;
40815;SDS011;26535;48.788;9.214;2024-01-10T09:02:23;30.38;;;14.82;;
40815;SDS011;26535;48.788;9.214;2024-01-10T09:04:52;26.98;;;14.05;;
40815;SDS011;26535;48.788;9.214;2024-01-10T09:07:19;29.00;;;15.38;;
40815;SDS011;26535;48.788;9.214;2024-01-10T09:09:49;37.08;;;16.33;;
40815;SDS011;26535;48.788;9.214;2024-01-10T09:12:15;31.25;;;14.65;;
40815;SDS011;26535;48.788;9.214;2024-01-10T09:14:43;29.17;;;14.50;;
40815;SDS011;26535;48.788;9.214;2024-01-10T09:17:09;30.52;;;14.70;;
40815;SDS011;26535;48.788;9.214;2024-01-10T09:19:37;28.10;;;15.02;;
40815;SDS011;26535;48.788;9.214;2024-01-10T09:22:03;29.23;;;14.77;;
40815;SDS011;26535;48.788;9.214;2024-01-10T09:24:29;32.10;;;15.68;;
40815;SDS011;26535;48.788;9.214;2024-01-10T09:26:57;31.73;;;14.98;;
40815;SDS011;26535;48.788;9.214;2024-01-10T09:29:34;30.10;;;14.82;;
40815;SDS011;26535;48.788;9.214;2024-01-10T09:32:03;29.75;;;14.70;;
40815;SDS011;26535;48.788;9.214;2024-01-10T09:34:32;29.27;;;15.73;;
40815;SDS011;26535;48.788;9.214;2024-01-10T09:37:00;30.70;;;16.58;;
40815;SDS011;26535;48.788;9.214;2024-01-10T09:39:27;32.28;;;16.48;;
40815;SDS011;26535;48.788;9.214;2024-01-10T09:41:58;30.45;;;14.93;;
40815;SDS011;26535;48.788;9.214;2024-01-10T09:44:29;30.50;;;17.05;;
40815;SDS011;26535;48.788;9.214;2024-01-10T09:46:58;34.85;;;15.85;;
40815;SDS011;26535;48.788;9.214;2024-01-10T09:49:30;33.58;;;16.15;;
40815;SDS011;26535;48.788;9.214;2024-01-10T09:51:58;32.67;;;15.52;;
40815;SDS011;26535;48.788;9.214;2024-01-10T09:54:30;30.25;;;15.45;;
40815;SDS011;26535;48.788;9.214;2024-01-10T09:57:00;29.92;;;15.50;;
40815;SDS011;26535;48.788;9.214;2024-01-10T09:59:26;29.60;;;15.82;;
40815;SDS011;26535;48.788;9.214;2024-01-10T10:01:57;32.00;;;16.05;;
40815;SDS011;26535;48.788;9.214;2024-01-10T10:04:23;35.90;;;15.63;;
40815;SDS011;26535;48.788;9.214;2024-01-10T10:06:59;32.60;;;15.95;;
40815;SDS011;26535;48.788;9.214;2024-01-10T10:09:28;29.48;;;16.60;;
40815;SDS011;26535;48.788;9.214;2024-01-10T10:11:57;33.78;;;16.38;;
40815;SDS011;26535;48.788;9.214;2024-01-10T10:14:29;31.55;;;15.70;;
40815;SDS011;26535;48.788;9.214;2024-01-10T10:16:55;32.10;;;17.02;;
40815;SDS011;26535;48.788;9.214;2024-01-10T10:19:24;32.33;;;15.52;;
40815;SDS011;26535;48.788;9.214;2024-01-10T10:21:53;33.42;;;15.80;;
40815;SDS011;26535;48.788;9.214;2024-01-10T10:24:35;30.45;;;16.10;;
40815;SDS011;26535;48.788;9.214;2024-01-10T10:27:19;33.00;;;16.45;;
40815;SDS011;26535;48.788;9.214;2024-01-10T10:29:45;31.70;;;16.05;;
40815;SDS011;26535;48.788;9.214;2024-01-10T10:32:14;31.13;;;16.38;;
40815;SDS011;26535;48.788;9.214;2024-01-10T10:34:41;32.42;;;16.30;;
40815;SDS011;26535;48.788;9.214;2024-01-10T10:37:12;39.08;;;17.20;;
40815;SDS011;26535;48.788;9.214;2024-01-10T10:39:38;30.92;;;16.45;;
40815;SDS011;26535;48.788;9.214;2024-01-10T10:42:06;31.95;;;15.57;;
40815;SDS011;26535;48.788;9.214;2024-01-10T10:44:32;29.30;;;15.57;;
40815;SDS011;26535;48.788;9.214;2024-01-10T10:47:04;31.70;;;16.30;;
40815;SDS011;26535;48.788;9.214;2024-01-10T10:49:34;30.17;;;16.48;;
40815;SDS011;26535;48.788;9.214;2024-01-10T10:52:09;32.33;;;16.60;;
40815;SDS011;26535;48.788;9.214;2024-01-10T10:54:35;30.42;;;15.80;;
40815;SDS011;26535;48.788;9.214;2024-01-10T10:57:04;34.47;;;17.20;;
40815;SDS011;26535;48.788;9.214;2024-01-10T10:59:37;32.55;;;16.63;;
40815;SDS011;26535;48.788;9.214;2024-01-10T11:02:27;33.85;;;15.63;;
40815;SDS011;26535;48.788;9.214;2024-01-10T11:04:53;33.08;;;17.25;;
40815;SDS011;26535;48.788;9.214;2024-01-10T11:07:20;31.27;;;17.17;;
40815;SDS011;26535;48.788;9.214;2024-01-10T11:09:49;27.35;;;15.70;;
40815;SDS011;26535;48.788;9.214;2024-01-10T11:18:32;30.55;;;16.85;;
40815;SDS011;26535;48.788;9.214;2024-01-10T11:21:03;30.13;;;16.13;;
40815;SDS011;26535;48.788;9.214;2024-01-10T11:23:44;30.05;;;17.65;;
40815;SDS011;26535;48.788;9.214;2024-01-10T11:26:28;29.92;;;17.25;;
40815;SDS011;26535;48.788;9.214;2024-01-10T11:28:58;29.80;;;17.92;;
40815;SDS011;26535;48.788;9.214;2024-01-10T11:31:29;28.23;;;17.30;;
40815;SDS011;26535;48.788;9.214;2024-01-10T11:34:00;26.85;;;17.13;;
40815;SDS011;26535;48.788;9.214;2024-01-10T11:36:34;29.23;;;17.42;;
40815;SDS011;26535;48.788;9.214;2024-01-10T11:39:29;28.45;;;17.90;;
40815;SDS011;26535;48.788;9.214;2024-01-10T11:42:09;26.27;;;17.63;;
40815;SDS011;26535;48.788;9.214;2024-01-10T11:44:50;29.15;;;18.02;;
40815;SDS011;26535;48.788;9.214;2024-01-10T11:47:19;26.92;;;17.73;;
40815;SDS011;26535;48.788;9.214;2024-01-10T11:49:55;26.52;;;17.33;;
40815;SDS011;26535;48.788;9.214;2024-01-10T11:52:34;26.58;;;16.40;;
40815;SDS011;26535;48.788;9.214;2024-01-10T11:55:01;26.67;;;17.98;;
40815;SDS011;26535;48.788;9.214;2024-01-10T11:57:32;26.83;;;17.00;;
40815;SDS011;26535;48.788;9.214;2024-01-10T12:03:04;26.30;;;18.23;;
40815;SDS011;26535;48.788;9.214;2024-01-10T12:05:34;27.00;;;17.63;;
40815;SDS011;26535;48.788;9.214;2024-01-10T12:08:07;28.35;;;19.27;;
40815;SDS011;26535;48.788;9.214;2024-01-10T12:10:45;26.00;;;17.88;;
40815;SDS011;26535;48.788;9.214;2024-01-10T12:13:11;27.55;;;18.52;;
40815;SDS011;26535;48.788;9.214;2024-01-10T12:15:37;27.70;;;18.58;;
40815;SDS011;26535;48.788;9.214;2024-01-10T12:18:02;26.58;;;17.42;;
40815;SDS011;26535;48.788;9.214;2024-01-10T12:20:29;27.10;;;18.00;;
40815;SDS011;26535;48.788;9.214;2024-01-10T12:22:55;27.90;;;18.45;;
40815;SDS011;26535;48.788;9.214;2024-01-10T12:25:27;25.90;;;18.20;;
40815;SDS011;26535;48.788;9.214;2024-01-10T12:28:01;26.75;;;17.67;;
40815;SDS011;26535;48.788;9.214;2024-01-10T12:30:27;26.02;;;18.48;;
40815;SDS011;26535;48.788;9.214;2024-01-10T12:32:53;26.67;;;18.27;;
40815;SDS011;26535;48.788;9.214;2024-01-10T12:35:19;26.27;;;17.13;;
40815;SDS011;26535;48.788;9.214;2024-01-10T12:37:56;26.55;;;17.73;;
40815;SDS011;26535;48.788;9.214;2024-01-10T12:40:22;25.73;;;17.50;;
40815;SDS011;26535;48.788;9.214;2024-01-10T12:42:48;25.98;;;17.33;;
40815;SDS011;26535;48.788;9.214;2024-01-10T12:45:23;26.88;;;18.67;;
40815;SDS011;26535;48.788;9.214;2024-01-10T12:47:49;25.15;;;18.30;;
40815;SDS011;26535;48.788;9.214;2024-01-10T12:50:20;27.23;;;17.63;;
40815;SDS011;26535;48.788;9.214;2024-01-10T12:52:46;26.83;;;17.67;;
40815;SDS011;26535;48.788;9.214;2024-01-10T12:55:13;27.83;;;18.02;;
40815;SDS011;26535;48.788;9.214;2024-01-10T12:57:39;25.50;;;16.95;;
40815;SDS011;26535;48.788;9.214;2024-01-10T13:00:08;26.02;;;17.45;;
40815;SDS011;26535;48.788;9.214;2024-01-10T13:02:35;26.63;;;17.45;;
40815;SDS011;26535;48.788;9.214;2024-01-10T13:05:05;26.97;;;17.50;;
40815;SDS011;26535;48.788;9.214;2024-01-10T13:07:37;28.65;;;17.85;;
40815;SDS011;26535;48.788;9.214;2024-01-10T13:10:06;27.33;;;17.42;;
40815;SDS011;26535;48.788;9.214;2024-01-10T13:12:34;26.92;;;17.00;;
40815;SDS011;26535;48.788;9.214;2024-01-10T13:15:00;27.17;;;17.65;;
40815;SDS011;26535;48.788;9.214;2024-01-10T13:17:32;29.98;;;17.88;;
40815;SDS011;26535;48.788;9.214;2024-01-10T13:22:23;29.27;;;17.30;;
40815;SDS011;26535;48.788;9.214;2024-01-10T13:24:49;28.15;;;17.67;;
40815;SDS011;26535;48.788;9.214;2024-01-10T13:27:15;29.23;;;17.98;;
40815;SDS011;26535;48.788;9.214;2024-01-10T13:29:40;29.20;;;17.55;;
40815;SDS011;26535;48.788;9.214;2024-01-10T13:32:06;28.05;;;17.05;;
40815;SDS011;26535;48.788;9.214;2024-01-10T13:34:32;34.53;;;18.75;;
40815;SDS011;26535;48.788;9.214;2024-01-10T13:37:01;29.17;;;17.20;;
40815;SDS011;26535;48.788;9.214;2024-01-10T13:39:30;31.25;;;18.55;;
40815;SDS011;26535;48.788;9.214;2024-01-10T13:44:30;36.85;;;18.27;;
40815;SDS011;26535;48.788;9.214;2024-01-10T13:47:02;33.60;;;18.50;;
40815;SDS011;26535;48.788;9.214;2024-01-10T13:49:28;30.38;;;18.98;;
40815;SDS011;26535;48.788;9.214;2024-01-10T13:51:57;30.35;;;18.35;;
40815;SDS011;26535;48.788;9.214;2024-01-10T13:54:29;35.95;;;18.25;;
40815;SDS011;26535;48.788;9.214;2024-01-10T13:56:54;33.92;;;18.80;;
40815;SDS011;26535;48.788;9.214;2024-01-10T13:59:21;32.92;;;18.42;;
40815;SDS011;26535;48.788;9.214;2024-01-10T14:01:52;32.80;;;19.02;;
40815;SDS011;26535;48.788;9.214;2024-01-10T14:04:21;33.63;;;18.70;;
40815;SDS011;26535;48.788;9.214;2024-01-10T14:06:49;35.67;;;19.60;;
40815;SDS011;26535;48.788;9.214;2024-01-10T14:09:15;30.80;;;17.73;;
40815;SDS011;26535;48.788;9.214;2024-01-10T14:11:43;33.00;;;17.77;;
40815;SDS011;26535;48.788;9.214;2024-01-10T14:14:09;30.55;;;18.10;;
40815;SDS011;26535;48.788;9.214;2024-01-10T14:16:38;30.15;;;18.40;;
40815;SDS011;26535;48.788;9.214;2024-01-10T14:19:07;30.77;;;17.98;;
40815;SDS011;26535;48.788;9.214;2024-01-10T14:21:51;28.85;;;17.45;;
40815;SDS011;26535;48.788;9.214;2024-01-10T14:24:20;29.90;;;17.85;;
40815;SDS011;26535;48.788;9.214;2024-01-10T14:26:45;31.65;;;18.88;;
40815;SDS011;26535;48.788;9.214;2024-01-10T14:29:13;33.17;;;18.17;;
40815;SDS011;26535;48.788;9.214;2024-01-10T14:31:39;31.58;;;18.23;;
40815;SDS011;26535;48.788;9.214;2024-01-10T14:34:07;31.25;;;17.50;;
40815;SDS011;26535;48.788;9.214;2024-01-10T14:36:40;31.35;;;17.58;;
40815;SDS011;26535;48.788;9.214;2024-01-10T14:39:05;28.98;;;17.00;;
40815;SDS011;26535;48.788;9.214;2024-01-10T14:41:37;31.20;;;17.00;;
40815;SDS011;26535;48.788;9.214;2024-01-10T14:44:04;29.90;;;17.55;;
40815;SDS011;26535;48.788;9.214;2024-01-10T14:46:29;29.55;;;18.15;;
40815;SDS011;26535;48.788;9.214;2024-01-10T14:48:55;30.30;;;17.40;;
40815;SDS011;26535;48.788;9.214;2024-01-10T14:51:21;33.70;;;18.77;;